Time;durP1;ratioP1;P1;durP2;ratioP2;P2;SDS_P1;SDS_P2;PMS_P1;PMS_P2;Temp;Humidity;BMP_temperature;BMP_pressure;BME280_temperature;BME280_humidity;BME280_pressure;Samples;Min_cycle;Max_cycle;Signal;HPM_P1;HPM_P2
2022/06/27 00:00:26;;;;;;;27.25;15.25;;;16.30;99.90;;;;;;4959617;28;20043;-70
2022/06/27 00:02:51;;;;;;;27.88;15.02;;;16.30;99.90;;;;;;4959739;28;20076;-69
2022/06/27 00:05:17;;;;;;;27.73;15.55;;;16.30;99.90;;;;;;4960144;28;20043;-69
2022/06/27 00:07:43;;;;;;;24.80;14.38;;;16.30;99.90;;;;;;4943879;28;20089;-69
2022/06/27 00:10:08;;;;;;;29.63;14.52;;;16.30;99.90;;;;;;4959972;28;20379;-69
2022/06/27 00:12:35;;;;;;;28.88;14.40;;;16.30;99.90;;;;;;4959605;28;20047;-69
2022/06/27 00:15:01;;;;;;;28.52;15.10;;;16.30;99.90;;;;;;4959479;28;20490;-69
2022/06/27 00:17:29;;;;;;;27.88;15.25;;;16.30;99.90;;;;;;4959440;28;20399;-69
2022/06/27 00:19:56;;;;;;;31.17;15.30;;;16.40;99.90;;;;;;4959790;28;20046;-69
2022/06/27 00:26:02;;;;;;;27.42;13.88;;;16.30;99.90;;;;;;4976891;28;20401;-70
2022/06/27 00:28:28;;;;;;;25.33;14.55;;;16.20;99.90;;;;;;4959500;28;20035;-69
2022/06/27 00:30:54;;;;;;;27.60;15.45;;;16.20;99.90;;;;;;4959569;28;20047;-70
2022/06/27 00:33:20;;;;;;;32.25;15.88;;;16.10;99.90;;;;;;4944180;28;20054;-70
2022/06/27 00:35:46;;;;;;;28.25;15.32;;;16.10;99.90;;;;;;4959290;28;20043;-69
2022/06/27 00:38:11;;;;;;;27.50;15.68;;;16.00;99.90;;;;;;4959323;28;20378;-69
2022/06/27 00:40:37;;;;;;;29.27;16.30;;;16.00;99.90;;;;;;4959184;28;20047;-69
2022/06/27 00:43:03;;;;;;;25.60;15.32;;;16.00;99.90;;;;;;4959476;28;20062;-69
2022/06/27 00:45:29;;;;;;;28.73;15.13;;;16.10;99.90;;;;;;4959603;28;20073;-69
2022/06/27 00:47:54;;;;;;;28.40;15.30;;;16.00;99.90;;;;;;4991538;28;20414;-69
2022/06/27 00:54:01;;;;;;;24.92;14.15;;;16.00;99.90;;;;;;4976327;28;20088;-69
2022/06/27 00:56:27;;;;;;;25.25;15.90;;;16.10;99.90;;;;;;4958856;28;20054;-69
2022/06/27 00:58:53;;;;;;;32.85;16.52;;;16.00;99.90;;;;;;4958890;28;20401;-69
2022/06/27 01:01:19;;;;;;;24.45;14.52;;;16.10;99.90;;;;;;4958854;28;20107;-69
2022/06/27 01:03:44;;;;;;;26.77;14.70;;;16.10;99.90;;;;;;4958850;28;20094;-69
2022/06/27 01:06:10;;;;;;;28.17;15.63;;;16.00;99.90;;;;;;4958809;28;20042;-70
2022/06/27 01:08:36;;;;;;;29.65;15.93;;;15.90;99.90;;;;;;4958936;28;20398;-70
2022/06/27 01:11:02;;;;;;;33.10;16.08;;;15.90;99.90;;;;;;4990957;28;20043;-69
2022/06/27 01:13:29;;;;;;;29.95;16.30;;;15.90;99.90;;;;;;4958606;28;20050;-70
2022/06/27 01:15:55;;;;;;;31.08;16.70;;;15.80;99.90;;;;;;4958516;28;20039;-69
2022/06/27 01:18:21;;;;;;;31.95;16.80;;;15.90;99.90;;;;;;4958459;28;20035;-70
2022/06/27 01:20:46;;;;;;;31.23;17.55;;;15.80;99.90;;;;;;4958400;28;20409;-70
2022/06/27 01:23:12;;;;;;;29.27;17.23;;;15.70;99.90;;;;;;4963124;28;20402;-70
2022/06/27 01:25:38;;;;;;;32.10;18.05;;;15.80;99.90;;;;;;4970347;28;20074;-70
2022/06/27 01:28:05;;;;;;;33.53;18.05;;;15.80;99.90;;;;;;4963829;28;20047;-71
2022/06/27 01:30:31;;;;;;;38.33;18.35;;;15.80;99.90;;;;;;4959509;28;20047;-70
2022/06/27 01:32:56;;;;;;;41.08;18.63;;;15.70;99.90;;;;;;4958191;28;20042;-70
2022/06/27 01:35:22;;;;;;;32.50;17.25;;;15.80;99.90;;;;;;4958438;28;20035;-69
2022/06/27 01:37:48;;;;;;;32.22;18.52;;;15.70;99.90;;;;;;4958038;28;20408;-69
2022/06/27 01:40:14;;;;;;;37.92;18.55;;;15.70;99.90;;;;;;4958115;28;20532;-70
2022/06/27 01:42:41;;;;;;;33.88;17.70;;;15.80;99.90;;;;;;4957982;28;20047;-69
2022/06/27 01:45:07;;;;;;;33.05;17.67;;;15.90;99.90;;;;;;4989930;28;20051;-69
2022/06/27 01:47:33;;;;;;;36.70;18.77;;;15.80;99.90;;;;;;4958292;28;20130;-70
2022/06/27 01:49:59;;;;;;;37.50;18.83;;;15.80;99.90;;;;;;4958197;28;20074;-70
2022/06/27 01:52:27;;;;;;;42.17;19.98;;;15.90;99.90;;;;;;4957872;28;20058;-70
2022/06/27 01:54:53;;;;;;;35.03;19.02;;;15.90;99.90;;;;;;4958165;28;20061;-70
2022/06/27 01:57:19;;;;;;;30.77;17.92;;;15.90;99.90;;;;;;4957928;28;20125;-70
2022/06/27 02:00:22;;;;;;;36.50;18.55;;;15.90;99.90;;;;;;4976354;28;20084;-70
2022/06/27 02:02:48;;;;;;;37.40;19.33;;;15.90;99.90;;;;;;4973695;28;20054;-69
2022/06/27 02:05:14;;;;;;;30.98;18.67;;;15.90;99.90;;;;;;4973793;28;20129;-69
2022/06/27 02:07:42;;;;;;;36.00;19.23;;;15.90;99.90;;;;;;4973749;28;20069;-69
2022/06/27 02:10:08;;;;;;;33.08;18.58;;;15.90;99.90;;;;;;4973976;28;20501;-69
2022/06/27 02:12:34;;;;;;;31.65;18.42;;;16.00;99.90;;;;;;4973642;28;20097;-69
2022/06/27 02:15:00;;;;;;;32.42;19.33;;;16.00;99.90;;;;;;4973662;28;20446;-70
2022/06/27 02:17:25;;;;;;;34.65;19.13;;;15.90;99.90;;;;;;4973548;28;20042;-69
2022/06/27 02:19:51;;;;;;;40.58;20.08;;;15.90;99.90;;;;;;4973629;28;20034;-70
2022/06/27 02:22:17;;;;;;;34.92;21.02;;;16.00;99.90;;;;;;4973526;28;20038;-69
2022/06/27 02:24:43;;;;;;;36.83;19.27;;;15.90;99.90;;;;;;4973586;28;20041;-69
2022/06/27 02:27:10;;;;;;;31.55;18.83;;;15.90;99.90;;;;;;4964816;28;20065;-69
2022/06/27 02:29:37;;;;;;;38.45;18.50;;;15.90;99.90;;;;;;4941836;28;20486;-69
2022/06/27 02:32:03;;;;;;;33.08;17.98;;;15.90;99.90;;;;;;4941426;28;20035;-69
2022/06/27 02:34:29;;;;;;;34.33;19.20;;;15.90;99.90;;;;;;4957293;28;20097;-69
2022/06/27 02:36:56;;;;;;;33.22;18.00;;;15.90;99.90;;;;;;4957562;28;20034;-68
2022/06/27 02:39:28;;;;;;;36.67;19.60;;;16.00;99.90;;;;;;4957263;28;20058;-69
2022/06/27 02:41:57;;;;;;;31.48;19.00;;;16.00;99.90;;;;;;4987559;28;20043;-69
2022/06/27 02:44:23;;;;;;;33.53;18.58;;;16.00;99.90;;;;;;4949397;28;20049;-69
2022/06/27 02:46:51;;;;;;;31.50;17.63;;;16.00;99.90;;;;;;4973377;28;20047;-69
2022/06/27 02:49:17;;;;;;;34.65;19.25;;;16.00;99.90;;;;;;4973354;28;20047;-68
2022/06/27 02:51:59;;;;;;;31.65;19.00;;;16.00;99.90;;;;;;4973354;28;20058;-69
2022/06/27 02:54:35;;;;;;;34.95;19.38;;;16.10;99.90;;;;;;4973285;28;20039;-68
2022/06/27 02:57:07;;;;;;;30.83;19.02;;;16.00;99.90;;;;;;4974808;28;20038;-69
2022/06/27 02:59:37;;;;;;;36.65;19.27;;;16.00;99.90;;;;;;4977219;28;20039;-68
2022/06/27 03:02:07;;;;;;;36.92;19.90;;;16.00;99.90;;;;;;4977144;28;20078;-68
2022/06/27 03:04:33;;;;;;;36.60;19.55;;;16.00;99.90;;;;;;4977047;28;20042;-69
2022/06/27 03:06:58;;;;;;;34.78;19.30;;;15.90;99.90;;;;;;4977008;28;20054;-69
2022/06/27 03:09:24;;;;;;;38.60;19.23;;;15.90;99.90;;;;;;4977223;28;20486;-69
2022/06/27 03:11:50;;;;;;;37.00;19.67;;;16.00;99.90;;;;;;4977173;28;20043;-68
2022/06/27 03:14:16;;;;;;;33.78;19.73;;;15.90;99.90;;;;;;4976803;28;20074;-69
2022/06/27 03:16:41;;;;;;;31.58;18.48;;;15.90;99.90;;;;;;4976664;28;20093;-69
2022/06/27 03:19:07;;;;;;;31.27;17.75;;;15.90;99.90;;;;;;4976833;28;20082;-68
2022/06/27 03:21:33;;;;;;;35.22;19.63;;;15.90;99.90;;;;;;4976596;28;20037;-68
2022/06/27 03:23:58;;;;;;;32.15;18.30;;;16.00;99.90;;;;;;4944642;28;20066;-68
2022/06/27 03:26:24;;;;;;;33.47;18.65;;;16.00;99.90;;;;;;4960566;28;20050;-68
2022/06/27 03:28:49;;;;;;;32.78;18.60;;;16.00;99.90;;;;;;4960552;28;20126;-68
2022/06/27 03:31:15;;;;;;;34.00;18.58;;;15.90;99.90;;;;;;4960722;28;20046;-68
2022/06/27 03:33:42;;;;;;;35.85;18.42;;;16.00;99.90;;;;;;4960448;28;20074;-68
2022/06/27 03:36:08;;;;;;;34.50;17.85;;;16.00;99.90;;;;;;4961270;28;20037;-69
2022/06/27 03:38:33;;;;;;;34.50;19.50;;;15.90;99.90;;;;;;4960530;28;20031;-69
2022/06/27 03:41:00;;;;;;;35.05;19.83;;;15.90;99.90;;;;;;4960450;28;20062;-69
2022/06/27 03:43:25;;;;;;;34.58;20.60;;;16.00;99.90;;;;;;4992878;28;20057;-69
2022/06/27 03:45:51;;;;;;;36.50;20.33;;;15.90;99.90;;;;;;4960260;28;20047;-68
2022/06/27 03:51:12;;;;;;;31.67;17.80;;;16.00;99.90;;;;;;4925878;28;20499;-68
2022/06/27 03:53:38;;;;;;;31.35;17.85;;;16.00;99.90;;;;;;4959857;28;20065;-69
2022/06/27 03:56:03;;;;;;;31.92;18.05;;;16.10;99.90;;;;;;4957303;28;20035;-69
2022/06/27 03:58:29;;;;;;;35.03;19.02;;;16.00;99.90;;;;;;4943924;28;20077;-68
2022/06/27 04:00:55;;;;;;;37.45;18.20;;;16.00;99.90;;;;;;4959976;28;20042;-69
2022/06/27 04:03:20;;;;;;;35.38;17.67;;;15.90;99.90;;;;;;4946187;28;20552;-69
2022/06/27 04:06:41;;;;;;;32.10;17.35;;;15.90;99.90;;;;;;4948655;28;20093;-68
2022/06/27 04:09:06;;;;;;;32.38;17.42;;;15.90;99.90;;;;;;4961997;28;20116;-68
2022/06/27 04:11:32;;;;;;;32.17;17.17;;;15.90;99.90;;;;;;4959819;28;20129;-68
2022/06/27 04:13:58;;;;;;;32.20;17.38;;;15.90;99.90;;;;;;4959617;28;20069;-68
2022/06/27 04:16:23;;;;;;;33.15;17.02;;;15.90;99.90;;;;;;4959564;28;20085;-68
2022/06/27 04:18:49;;;;;;;34.22;17.65;;;15.90;99.90;;;;;;4959900;28;20490;-68
2022/06/27 04:21:14;;;;;;;29.00;16.60;;;16.00;99.90;;;;;;4959863;28;20031;-68
2022/06/27 04:23:40;;;;;;;31.85;17.02;;;15.90;99.90;;;;;;4959509;28;20125;-68
2022/06/27 04:26:06;;;;;;;32.90;16.30;;;16.00;99.90;;;;;;4959550;28;20500;-69
2022/06/27 04:28:32;;;;;;;30.67;16.25;;;16.00;99.90;;;;;;4963943;28;20050;-68
2022/06/27 04:30:57;;;;;;;28.70;15.98;;;16.00;99.90;;;;;;4959728;28;20050;-68
2022/06/27 04:33:23;;;;;;;31.17;17.20;;;16.00;99.90;;;;;;4959390;28;20078;-68
2022/06/27 04:35:50;;;;;;;28.98;16.08;;;16.10;99.90;;;;;;4959309;28;20039;-69
2022/06/27 04:38:18;;;;;;;29.67;16.65;;;16.00;99.90;;;;;;4959265;28;20047;-68
2022/06/27 04:40:44;;;;;;;30.40;17.00;;;16.00;99.90;;;;;;4959165;28;20042;-69
2022/06/27 04:46:50;;;;;;;29.58;16.95;;;16.10;99.90;;;;;;4972574;28;20034;-68
2022/06/27 04:49:17;;;;;;;35.90;18.38;;;16.10;99.90;;;;;;4959097;28;20050;-68
2022/06/27 04:51:43;;;;;;;30.63;17.58;;;16.10;99.90;;;;;;4959300;28;20042;-68
2022/06/27 04:54:10;;;;;;;32.25;18.90;;;16.10;99.90;;;;;;4958911;28;20046;-68
2022/06/27 04:56:43;;;;;;;31.45;18.10;;;16.10;99.90;;;;;;4958820;28;20055;-69
2022/06/27 04:59:10;;;;;;;35.30;18.88;;;16.20;99.90;;;;;;4958901;28;20042;-68
2022/06/27 05:01:36;;;;;;;31.85;17.65;;;16.20;99.90;;;;;;4991462;28;20033;-68
2022/06/27 05:04:02;;;;;;;39.17;18.30;;;16.20;99.90;;;;;;4991048;28;20049;-69
2022/06/27 05:06:27;;;;;;;30.92;17.58;;;16.20;99.90;;;;;;4958710;28;20046;-68
2022/06/27 05:08:53;;;;;;;30.55;18.05;;;16.20;99.90;;;;;;4958755;28;20046;-68
2022/06/27 05:11:19;;;;;;;32.35;18.00;;;16.20;99.90;;;;;;4958706;28;20503;-68
2022/06/27 05:13:45;;;;;;;31.70;17.92;;;16.30;99.90;;;;;;4958688;28;20034;-69
2022/06/27 05:16:10;;;;;;;34.95;18.17;;;16.20;99.90;;;;;;4958485;28;20043;-69
2022/06/27 05:18:36;;;;;;;35.47;19.00;;;16.30;99.90;;;;;;4958309;28;20406;-68
2022/06/27 05:21:02;;;;;;;30.52;17.65;;;16.30;99.90;;;;;;4957942;28;20034;-67
2022/06/27 05:23:28;;;;;;;27.40;16.77;;;16.30;99.90;;;;;;4958776;28;20050;-69
2022/06/27 05:25:53;;;;;;;27.85;16.13;;;16.40;99.90;;;;;;4958579;28;20051;-68
2022/06/27 05:28:19;;;;;;;26.50;15.02;;;16.40;99.90;;;;;;4958539;28;20417;-68
2022/06/27 05:34:25;;;;;;;28.85;14.95;;;16.50;99.90;;;;;;4975549;28;20460;-68
2022/06/27 05:36:51;;;;;;;25.02;15.02;;;16.50;99.90;;;;;;4958238;28;20125;-68
2022/06/27 05:39:17;;;;;;;28.30;15.30;;;16.60;99.90;;;;;;4958183;28;20043;-69
2022/06/27 05:41:43;;;;;;;27.58;15.00;;;16.50;99.90;;;;;;4958149;28;20035;-68
2022/06/27 05:44:09;;;;;;;23.90;14.25;;;16.70;99.90;;;;;;4975309;28;20064;-68
2022/06/27 05:46:37;;;;;;;25.20;14.25;;;16.70;99.90;;;;;;4958011;28;20433;-68
2022/06/27 05:52:45;;;;;;;21.63;12.02;;;16.80;99.90;;;;;;4972528;28;20041;-67
2022/06/27 05:55:11;;;;;;;18.85;10.82;;;16.90;99.90;;;;;;4973108;28;20049;-68
2022/06/27 05:57:38;;;;;;;17.67;9.70;;;16.90;99.90;;;;;;4977132;28;20073;-68
2022/06/27 06:00:05;;;;;;;18.60;9.13;;;16.90;99.90;;;;;;4959148;28;20042;-69
2022/06/27 06:02:30;;;;;;;15.07;9.20;;;16.80;99.90;;;;;;4959045;28;20043;-67
2022/06/27 06:04:56;;;;;;;13.98;8.45;;;16.80;99.90;;;;;;4961480;28;20060;-68
2022/06/27 06:07:22;;;;;;;17.38;9.00;;;16.80;99.90;;;;;;4959003;28;20035;-70
2022/06/27 06:09:49;;;;;;;14.25;8.20;;;16.80;99.90;;;;;;4957724;28;20114;-68
2022/06/27 06:12:16;;;;;;;14.10;8.20;;;16.80;99.90;;;;;;4957880;28;20070;-67
2022/06/27 06:14:43;;;;;;;14.10;8.65;;;16.80;99.90;;;;;;4957531;28;20053;-68
2022/06/27 06:17:09;;;;;;;13.52;8.13;;;16.70;99.90;;;;;;4957397;28;20047;-69
2022/06/27 06:19:35;;;;;;;14.18;8.20;;;16.80;99.90;;;;;;4957470;28;20046;-69
2022/06/27 06:22:01;;;;;;;16.33;8.75;;;16.70;99.90;;;;;;4957533;28;20039;-69
2022/06/27 06:24:27;;;;;;;14.45;8.45;;;16.70;99.90;;;;;;4941589;28;20184;-69
2022/06/27 06:26:55;;;;;;;13.68;9.00;;;16.80;99.90;;;;;;4941640;28;20130;-69
2022/06/27 06:29:22;;;;;;;13.65;8.45;;;16.70;99.90;;;;;;4941496;28;20047;-69
2022/06/27 06:31:49;;;;;;;12.40;8.50;;;16.80;99.90;;;;;;4957377;28;20081;-69
2022/06/27 06:34:16;;;;;;;13.32;9.00;;;16.70;99.90;;;;;;4957438;28;20090;-69
2022/06/27 06:36:43;;;;;;;13.80;8.88;;;16.70;99.90;;;;;;4961752;28;20070;-69
2022/06/27 06:39:10;;;;;;;13.95;8.52;;;16.70;99.90;;;;;;4973440;28;20047;-69
2022/06/27 06:41:36;;;;;;;16.67;8.77;;;16.70;99.90;;;;;;4973680;28;20524;-69
2022/06/27 06:44:05;;;;;;;21.10;9.45;;;16.70;99.90;;;;;;4973374;28;20043;-70
2022/06/27 06:46:32;;;;;;;14.45;9.23;;;16.70;99.90;;;;;;4973404;28;20078;-69
2022/06/27 06:49:06;;;;;;;15.15;9.52;;;16.70;99.90;;;;;;4973373;28;20130;-69
2022/06/27 06:51:34;;;;;;;15.43;9.10;;;16.60;99.90;;;;;;4973397;28;20402;-69
2022/06/27 06:54:01;;;;;;;17.10;9.50;;;16.70;99.90;;;;;;4973186;28;20397;-69
2022/06/27 06:56:28;;;;;;;17.42;9.52;;;16.70;99.90;;;;;;4973243;28;20039;-69
2022/06/27 06:58:54;;;;;;;13.55;8.65;;;16.70;99.90;;;;;;4961515;28;20089;-69
2022/06/27 07:01:20;;;;;;;13.02;8.50;;;16.80;99.90;;;;;;4957457;28;20058;-70
2022/06/27 07:03:48;;;;;;;13.27;7.78;;;16.80;99.90;;;;;;4957217;28;20069;-70
2022/06/27 07:06:15;;;;;;;12.65;8.02;;;16.80;99.90;;;;;;4968589;28;20104;-70
2022/06/27 07:08:41;;;;;;;15.38;8.88;;;16.90;99.90;;;;;;4973220;28;20070;-69
2022/06/27 07:11:07;;;;;;;15.43;8.23;;;16.90;99.90;;;;;;4957095;28;20427;-69
2022/06/27 07:13:33;;;;;;;14.38;8.27;;;16.80;99.90;;;;;;4973053;28;20043;-69
2022/06/27 07:15:59;;;;;;;16.55;9.00;;;16.90;99.90;;;;;;4973121;28;20117;-69
2022/06/27 07:18:25;;;;;;;14.77;8.10;;;16.90;99.90;;;;;;4972995;28;20117;-69
2022/06/27 07:24:32;;;;;;;14.88;7.30;;;16.90;99.90;;;;;;4955079;29;20082;-69
2022/06/27 07:26:59;;;;;;;15.57;8.15;;;17.00;99.90;;;;;;4937758;29;20043;-69
2022/06/27 07:29:26;;;;;;;13.77;7.40;;;16.90;99.90;;;;;;4937843;29;20126;-69
2022/06/27 07:31:53;;;;;;;13.43;8.00;;;16.90;99.90;;;;;;4953842;29;20422;-69
2022/06/27 07:34:21;;;;;;;14.18;7.40;;;16.90;99.90;;;;;;4937764;29;20070;-69
2022/06/27 07:36:46;;;;;;;13.77;8.18;;;16.90;99.90;;;;;;4937756;29;20376;-69
2022/06/27 07:39:12;;;;;;;12.85;7.80;;;17.00;99.90;;;;;;4937709;29;20042;-69
2022/06/27 07:41:38;;;;;;;11.18;7.25;;;17.00;99.90;;;;;;4937975;28;20039;-69
2022/06/27 07:44:04;;;;;;;11.13;7.70;;;17.00;99.90;;;;;;4958005;29;20047;-69
2022/06/27 07:46:31;;;;;;;12.20;8.43;;;17.10;99.90;;;;;;4941097;29;20043;-69
2022/06/27 07:48:57;;;;;;;11.68;7.68;;;17.10;99.90;;;;;;4941095;29;20051;-69
2022/06/27 07:51:23;;;;;;;12.82;8.55;;;17.20;99.90;;;;;;4944309;28;20126;-68
2022/06/27 07:53:50;;;;;;;13.35;7.97;;;17.20;99.90;;;;;;4976165;28;20097;-71
2022/06/27 07:56:18;;;;;;;12.80;8.82;;;17.30;99.90;;;;;;4976433;28;20046;-69
2022/06/27 07:58:43;;;;;;;14.75;8.90;;;17.30;99.90;;;;;;4976420;28;20070;-68
2022/06/27 08:01:11;;;;;;;14.15;7.93;;;17.30;99.90;;;;;;4962863;28;20094;-71
2022/06/27 08:03:41;;;;;;;13.93;8.48;;;17.40;99.90;;;;;;4959981;28;20398;-71
2022/06/27 08:06:15;;;;;;;13.05;8.18;;;17.50;99.90;;;;;;4960117;28;20050;-68
2022/06/27 08:08:46;;;;;;;13.00;8.32;;;17.60;99.90;;;;;;4959810;28;20053;-69
2022/06/27 08:11:14;;;;;;;14.77;9.02;;;17.70;99.90;;;;;;4960096;28;20478;-69
2022/06/27 08:13:41;;;;;;;12.30;7.40;;;17.80;99.90;;;;;;4959676;28;20043;-70
2022/06/27 08:16:08;;;;;;;11.60;7.68;;;17.80;99.90;;;;;;4959982;28;20544;-70
2022/06/27 08:22:14;;;;;;;13.27;8.05;;;17.90;99.90;;;;;;4976954;28;20118;-70
2022/06/27 08:24:40;;;;;;;12.88;8.32;;;18.00;99.90;;;;;;4959632;28;20042;-70
2022/06/27 08:27:07;;;;;;;12.70;8.23;;;17.90;99.90;;;;;;4959649;28;20139;-68
2022/06/27 08:29:32;;;;;;;13.52;8.27;;;17.90;99.90;;;;;;4959554;28;20047;-70
2022/06/27 08:31:58;;;;;;;13.23;8.27;;;17.80;99.90;;;;;;4959274;28;20042;-69
2022/06/27 08:34:23;;;;;;;13.40;8.63;;;17.80;99.90;;;;;;4959075;28;20066;-69
2022/06/27 08:36:50;;;;;;;12.93;8.10;;;17.70;99.90;;;;;;4971215;28;20038;-69
2022/06/27 08:39:16;;;;;;;16.85;8.77;;;17.80;99.90;;;;;;4978991;28;20042;-72
2022/06/27 08:41:45;;;;;;;15.68;8.80;;;17.80;99.90;;;;;;4963322;28;20046;-68
2022/06/27 08:44:11;;;;;;;17.38;8.63;;;17.90;99.90;;;;;;4959013;28;20073;-71
2022/06/27 08:46:36;;;;;;;15.25;8.60;;;17.90;99.90;;;;;;4962245;28;20078;-72
2022/06/27 08:49:05;;;;;;;16.08;9.68;;;18.00;99.90;;;;;;4965133;28;20038;-69
2022/06/27 08:51:33;;;;;;;14.43;9.05;;;18.10;99.90;;;;;;4975285;28;20049;-69
2022/06/27 08:53:59;;;;;;;15.05;9.57;;;18.20;99.90;;;;;;4977239;28;20061;-69
2022/06/27 08:56:27;;;;;;;14.23;8.63;;;18.40;99.90;;;;;;4968198;28;20042;-69
2022/06/27 08:58:55;;;;;;;13.65;8.90;;;18.50;99.90;;;;;;4958753;28;20449;-70
2022/06/27 09:01:23;;;;;;;15.73;8.68;;;18.70;99.90;;;;;;4959099;28;20125;-70
2022/06/27 09:04:02;;;;;;;14.73;8.27;;;18.80;99.90;;;;;;4958975;28;20047;-69
2022/06/27 09:06:33;;;;;;;13.13;8.80;;;18.90;99.90;;;;;;4958803;28;20050;-70
2022/06/27 09:09:07;;;;;;;15.43;9.15;;;18.90;99.90;;;;;;4958640;28;20086;-70
2022/06/27 09:11:37;;;;;;;14.32;9.38;;;18.90;99.90;;;;;;4965579;28;20398;-70
2022/06/27 09:14:05;;;;;;;17.00;10.75;;;18.80;99.90;;;;;;4958395;28;20049;-70
2022/06/27 09:16:31;;;;;;;15.40;9.70;;;18.70;99.90;;;;;;4958216;28;20129;-69
2022/06/27 09:18:57;;;;;;;13.05;8.90;;;18.80;99.90;;;;;;4958028;28;20459;-70
2022/06/27 09:21:25;;;;;;;17.65;9.40;;;18.80;99.90;;;;;;4955683;28;20081;-70
2022/06/27 09:23:58;;;;;;;15.25;8.68;;;18.80;99.90;;;;;;4956382;28;20050;-69
2022/06/27 09:26:25;;;;;;;12.90;7.85;;;18.80;99.90;;;;;;4957858;28;20046;-69
2022/06/27 09:28:55;;;;;;;16.60;9.35;;;18.80;99.90;;;;;;4957181;28;20078;-69
2022/06/27 09:31:55;;;;;;;15.20;9.35;;;18.90;99.90;;;;;;4957656;28;20097;-70
2022/06/27 09:34:26;;;;;;;18.10;10.23;;;19.00;99.90;;;;;;4937460;29;20107;-69
2022/06/27 09:36:52;;;;;;;17.27;9.85;;;19.10;99.90;;;;;;4955006;29;20039;-69
2022/06/27 09:39:22;;;;;;;18.45;10.48;;;19.10;99.90;;;;;;4948961;28;20041;-70
2022/06/27 09:42:02;;;;;;;17.40;10.45;;;19.20;99.90;;;;;;4957751;28;20493;-69
2022/06/27 09:44:40;;;;;;;22.90;10.85;;;19.30;99.90;;;;;;4989928;28;20050;-69
2022/06/27 09:47:16;;;;;;;19.40;11.20;;;19.40;99.90;;;;;;4957266;28;20042;-70
2022/06/27 09:49:59;;;;;;;24.35;12.18;;;19.30;99.90;;;;;;4958915;28;20087;-70
2022/06/27 09:52:26;;;;;;;20.52;11.90;;;19.30;99.90;;;;;;4955517;28;20121;-70
2022/06/27 09:54:54;;;;;;;19.52;11.52;;;19.30;99.90;;;;;;4957735;28;20043;-70
2022/06/27 09:57:20;;;;;;;17.70;11.00;;;19.30;99.90;;;;;;4958453;28;20038;-70
2022/06/27 09:59:49;;;;;;;19.00;10.68;;;19.30;99.90;;;;;;4972494;28;20042;-72
2022/06/27 10:02:19;;;;;;;17.88;10.85;;;19.30;99.90;;;;;;4956809;28;20102;-70
2022/06/27 10:04:51;;;;;;;17.30;10.20;;;19.40;99.90;;;;;;4951580;28;20057;-70
2022/06/27 10:07:19;;;;;;;19.10;10.75;;;19.30;99.90;;;;;;4956963;28;20518;-71
2022/06/27 10:09:48;;;;;;;18.70;9.90;;;19.40;99.90;;;;;;4956755;28;20042;-70
2022/06/27 10:12:24;;;;;;;20.70;9.27;;;19.30;99.90;;;;;;4960370;28;20042;-70
2022/06/27 10:15:12;;;;;;;15.00;9.73;;;19.30;99.90;;;;;;4966323;28;20043;-70
2022/06/27 10:17:46;;;;;;;15.98;9.13;;;19.30;99.90;;;;;;4960099;28;20051;-70
2022/06/27 10:20:19;;;;;;;17.88;9.00;;;19.20;99.90;;;;;;4938439;29;20125;-70
2022/06/27 10:23:03;;;;;;;17.73;9.40;;;19.20;99.90;;;;;;4938321;29;20070;-70
2022/06/27 10:25:29;;;;;;;16.80;9.45;;;19.20;99.90;;;;;;4949339;28;20041;-70
2022/06/27 10:28:10;;;;;;;17.23;9.43;;;19.10;99.90;;;;;;4957706;28;20035;-70
2022/06/27 10:30:38;;;;;;;14.88;9.77;;;19.10;99.90;;;;;;4938341;29;20035;-70
2022/06/27 10:33:29;;;;;;;15.98;9.63;;;19.10;99.90;;;;;;4954078;29;20051;-70
2022/06/27 10:38:42;;;;;;;17.77;10.70;;;19.00;99.90;;;;;;4954099;29;20090;-70
2022/06/27 10:44:49;;;;;;;16.60;9.68;;;19.10;99.90;;;;;;4955240;29;20504;-70
2022/06/27 10:47:32;;;;;;;19.25;10.23;;;19.10;99.90;;;;;;4937885;29;20035;-70
2022/06/27 10:50:14;;;;;;;19.67;10.25;;;19.10;99.90;;;;;;4937975;29;20046;-70
2022/06/27 10:52:40;;;;;;;19.58;10.10;;;19.10;99.90;;;;;;4937931;29;20074;-69
2022/06/27 10:55:27;;;;;;;18.77;10.18;;;19.20;99.90;;;;;;4937691;29;20039;-70
2022/06/27 10:57:54;;;;;;;16.70;8.73;;;19.30;99.90;;;;;;4942442;28;20038;-71
2022/06/27 11:00:40;;;;;;;16.77;9.07;;;19.40;99.90;;;;;;4956287;28;20045;-70
2022/06/27 11:03:09;;;;;;;16.60;9.10;;;19.40;99.90;;;;;;4956455;28;20047;-71
2022/06/27 11:05:54;;;;;;;20.65;11.23;;;19.60;99.90;;;;;;4956550;28;20120;-71
2022/06/27 11:08:23;;;;;;;21.73;12.10;;;19.60;99.90;;;;;;4955940;28;20043;-71
2022/06/27 11:10:50;;;;;;;24.25;12.18;;;19.80;99.90;;;;;;4955946;28;20047;-71
2022/06/27 11:13:35;;;;;;;21.00;11.63;;;19.90;99.90;;;;;;4956508;28;20070;-69
2022/06/27 11:16:02;;;;;;;19.05;11.05;;;19.90;99.90;;;;;;4981559;28;20121;-70
2022/06/27 11:18:42;;;;;;;23.48;12.15;;;20.00;99.90;;;;;;4990619;28;20050;-71
2022/06/27 11:21:10;;;;;;;22.13;12.07;;;20.00;99.90;;;;;;4983765;28;20053;-71
2022/06/27 11:23:49;;;;;;;24.67;12.68;;;20.10;99.90;;;;;;4968375;28;20078;-71
2022/06/27 11:26:15;;;;;;;21.52;11.98;;;20.10;99.90;;;;;;4960367;28;20047;-69
2022/06/27 11:34:11;;;;;;;23.23;13.00;;;20.30;99.90;;;;;;4956963;29;20190;-69
2022/06/27 11:36:39;;;;;;;26.10;13.45;;;20.50;99.90;;;;;;4957032;28;20046;-68
2022/06/27 11:39:05;;;;;;;24.17;14.75;;;20.40;99.90;;;;;;4961700;28;20039;-70
2022/06/27 11:41:35;;;;;;;22.67;12.90;;;20.50;99.90;;;;;;4971779;28;20030;-73
2022/06/27 11:44:04;;;;;;;22.73;13.43;;;20.50;99.90;;;;;;4978648;28;20054;-73
2022/06/27 11:46:32;;;;;;;25.27;13.27;;;20.50;99.90;;;;;;4968323;28;20053;-71
2022/06/27 11:49:07;;;;;;;24.80;12.82;;;20.50;99.90;;;;;;4962603;28;20046;-71
2022/06/27 11:51:48;;;;;;;21.77;12.05;;;20.60;99.90;;;;;;4957713;28;20050;-70
2022/06/27 11:54:19;;;;;;;26.98;12.48;;;20.60;99.90;;;;;;4958080;28;20050;-70
2022/06/27 11:56:47;;;;;;;25.23;14.23;;;20.50;99.90;;;;;;4965948;28;20066;-73
2022/06/27 11:59:15;;;;;;;26.83;12.88;;;20.50;99.90;;;;;;4961848;28;20042;-73
2022/06/27 12:01:57;;;;;;;33.20;15.80;;;20.60;99.90;;;;;;4956167;28;20045;-70
2022/06/27 12:04:28;;;;;;;27.40;14.73;;;20.60;99.90;;;;;;4960612;28;20042;-71
2022/06/27 12:06:55;;;;;;;26.83;14.18;;;20.70;99.90;;;;;;4959461;28;20039;-74
2022/06/27 12:09:24;;;;;;;29.35;15.18;;;20.90;99.90;;;;;;4958450;28;20392;-72
2022/06/27 12:11:50;;;;;;;24.35;15.50;;;20.90;99.90;;;;;;4957407;28;20126;-71
2022/06/27 12:14:16;;;;;;;28.50;14.50;;;21.00;99.90;;;;;;4951850;28;20049;-72
2022/06/27 12:16:47;;;;;;;24.50;14.18;;;21.10;99.90;;;;;;4982563;28;20038;-71
2022/06/27 12:19:14;;;;;;;27.27;14.82;;;21.30;99.90;;;;;;4988218;28;20122;-71
2022/06/27 12:21:41;;;;;;;26.20;14.55;;;21.40;99.90;;;;;;4958935;28;20105;-72
2022/06/27 12:24:06;;;;;;;26.58;14.95;;;21.40;99.90;;;;;;4959304;28;20053;-70
2022/06/27 12:26:32;;;;;;;27.17;13.88;;;21.40;99.90;;;;;;4959238;28;20047;-69
2022/06/27 12:28:58;;;;;;;25.95;15.07;;;21.30;99.90;;;;;;4959181;28;20189;-70
2022/06/27 12:31:23;;;;;;;22.60;15.10;;;21.30;99.90;;;;;;4959482;28;20070;-70
2022/06/27 12:33:49;;;;;;;23.90;14.50;;;21.30;99.90;;;;;;4957452;28;20043;-67
2022/06/27 12:36:15;;;;;;;24.75;14.45;;;21.30;99.90;;;;;;4958691;28;20504;-69
2022/06/27 12:38:41;;;;;;;27.52;13.93;;;21.40;99.90;;;;;;4958787;28;20113;-70
2022/06/27 12:41:14;;;;;;;22.58;12.90;;;21.30;99.90;;;;;;4958141;28;20046;-70
2022/06/27 12:43:41;;;;;;;26.17;12.32;;;21.30;99.90;;;;;;4937283;29;20042;-71
2022/06/27 12:46:07;;;;;;;23.13;11.60;;;21.20;99.90;;;;;;4938057;29;20118;-71
2022/06/27 12:48:33;;;;;;;25.25;12.02;;;21.10;99.90;;;;;;4937823;29;20122;-71
2022/06/27 12:50:59;;;;;;;21.23;12.65;;;21.00;99.90;;;;;;4942194;28;20097;-71
2022/06/27 12:53:26;;;;;;;25.10;12.68;;;20.70;99.90;;;;;;4957781;28;20102;-71
2022/06/27 12:55:54;;;;;;;21.88;12.18;;;20.60;99.90;;;;;;4957970;28;20042;-71
2022/06/27 12:58:21;;;;;;;21.65;11.77;;;20.50;99.90;;;;;;4957960;28;20494;-71
2022/06/27 13:00:47;;;;;;;27.35;11.68;;;20.40;99.90;;;;;;4941695;28;20130;-71
2022/06/27 13:03:14;;;;;;;23.13;12.15;;;20.30;99.90;;;;;;4969473;28;20181;-71
2022/06/27 13:05:39;;;;;;;23.42;12.50;;;20.20;99.90;;;;;;4958595;28;20482;-71
2022/06/27 13:08:06;;;;;;;27.30;13.55;;;20.20;99.90;;;;;;4938111;28;20097;-71
2022/06/27 13:10:32;;;;;;;27.92;12.95;;;20.30;99.90;;;;;;4953218;29;20497;-71
2022/06/27 13:12:58;;;;;;;22.75;11.82;;;20.30;99.90;;;;;;4939174;29;20533;-70
2022/06/27 13:15:23;;;;;;;26.80;12.32;;;20.40;99.90;;;;;;4953657;28;20039;-71